Time;durP1;ratioP1;P1;durP2;ratioP2;P2;SDS_P1;SDS_P2;PMS_P1;PMS_P2;Temp;Humidity;BMP_temperature;BMP_pressure;BME280_temperature;BME280_humidity;BME280_pressure;Samples;Min_cycle;Max_cycle;Signal;HPM_P1;HPM_P2
2023/03/19 00:04:26;;;;;;;19.40;12.90;;;;;;;9.23;92.62;100036.13;10402353;28;20129;-77
2023/03/19 00:09:29;;;;;;;11.70;10.50;;;;;;;9.19;92.10;100031.16;10401351;28;20084;-77
2023/03/19 00:14:33;;;;;;;15.18;10.25;;;;;;;9.15;92.16;100030.53;10408936;28;20148;-78
2023/03/19 00:19:36;;;;;;;14.48;10.35;;;;;;;9.14;92.12;100031.50;10406100;28;20066;-79
2023/03/19 00:24:38;;;;;;;13.35;10.32;;;;;;;9.12;92.96;100024.56;10412238;28;20069;-79
2023/03/19 00:29:43;;;;;;;12.68;10.38;;;;;;;9.05;92.83;100027.75;10397848;28;20104;-78
2023/03/19 00:34:46;;;;;;;12.50;9.45;;;;;;;9.01;92.28;100037.00;10389876;28;20076;-79
2023/03/19 00:39:49;;;;;;;13.68;8.90;;;;;;;8.97;92.44;100024.84;10406428;28;20032;-77
2023/03/19 00:44:53;;;;;;;12.68;9.13;;;;;;;9.00;92.81;100021.06;10402515;28;20079;-77
2023/03/19 00:49:56;;;;;;;14.98;9.50;;;;;;;9.01;92.84;100022.75;10407826;28;20049;-77
2023/03/19 00:54:58;;;;;;;14.80;10.82;;;;;;;9.00;92.20;100023.75;10392523;28;20045;-79
2023/03/19 01:00:03;;;;;;;13.30;9.05;;;;;;;8.95;92.77;100025.94;10409503;28;20037;-77
2023/03/19 01:05:07;;;;;;;11.85;8.93;;;;;;;8.90;92.27;100028.97;10391490;28;20140;-77
2023/03/19 01:10:11;;;;;;;10.95;8.90;;;;;;;8.79;92.69;100039.69;10399987;28;20112;-78
2023/03/19 01:15:16;;;;;;;8.82;7.93;;;;;;;8.66;91.71;100042.47;10407599;28;20100;-77
2023/03/19 01:20:22;;;;;;;14.90;9.23;;;;;;;8.57;92.26;100045.88;10399990;28;20072;-77
2023/03/19 01:25:26;;;;;;;11.85;10.20;;;;;;;8.46;92.07;100045.84;10397007;28;20042;-78
2023/03/19 01:30:41;;;;;;;13.20;9.60;;;;;;;8.24;90.77;100035.94;10404520;28;20030;-77
2023/03/19 01:35:50;;;;;;;13.30;11.75;;;;;;;8.24;92.26;100039.44;10389385;28;20052;-78
2023/03/19 01:40:56;;;;;;;15.48;11.27;;;;;;;8.42;92.42;100039.88;10379754;28;20065;-77
2023/03/19 01:46:06;;;;;;;11.93;9.63;;;;;;;8.54;92.13;100030.91;10410644;28;20137;-78
2023/03/19 01:51:15;;;;;;;12.13;9.95;;;;;;;8.55;92.26;100032.59;10393140;28;20141;-78
2023/03/19 01:56:32;;;;;;;11.25;9.45;;;;;;;8.63;92.15;100028.47;10390782;28;20480;-76
2023/03/19 02:01:52;;;;;;;12.95;9.10;;;;;;;8.73;92.37;100029.47;10387240;28;20057;-78
2023/03/19 02:06:56;;;;;;;13.73;8.88;;;;;;;8.76;92.45;100032.75;10399337;28;20036;-78
2023/03/19 02:12:01;;;;;;;14.00;8.65;;;;;;;8.76;91.19;100034.56;10408626;28;20056;-78
2023/03/19 02:17:07;;;;;;;9.85;8.35;;;;;;;8.72;90.46;100031.28;10403344;28;20049;-76
2023/03/19 02:22:12;;;;;;;9.70;7.68;;;;;;;8.75;90.77;100033.72;10412422;28;20125;-76
2023/03/19 02:27:18;;;;;;;9.18;8.00;;;;;;;8.78;91.48;100036.16;10401663;28;20048;-78
2023/03/19 02:32:23;;;;;;;8.68;7.78;;;;;;;8.79;90.49;100037.00;10411307;28;20050;-78
2023/03/19 02:37:29;;;;;;;12.73;7.90;;;;;;;8.80;91.72;100027.97;10399554;28;20087;-78
2023/03/19 02:42:36;;;;;;;11.20;7.95;;;;;;;8.80;92.02;100026.19;10395011;28;20052;-78
2023/03/19 02:47:39;;;;;;;10.10;8.35;;;;;;;8.80;92.03;100025.31;10389759;28;20046;-78
2023/03/19 02:52:42;;;;;;;9.70;7.95;;;;;;;8.85;91.96;100031.16;10416706;28;20052;-79
2023/03/19 02:57:47;;;;;;;11.73;7.22;;;;;;;8.86;90.54;100038.22;10403841;28;20398;-77
2023/03/19 03:02:50;;;;;;;15.25;7.65;;;;;;;8.79;91.16;100050.41;10406963;28;20105;-78
2023/03/19 03:07:53;;;;;;;9.70;7.05;;;;;;;8.79;90.98;100055.75;10411878;28;20091;-78
2023/03/19 03:12:57;;;;;;;9.10;7.13;;;;;;;8.75;89.24;100046.22;10378590;28;20073;-78
2023/03/19 03:18:00;;;;;;;9.30;8.05;;;;;;;8.70;91.00;100035.06;10397593;28;20060;-78
2023/03/19 03:23:03;;;;;;;7.88;7.07;;;;;;;8.77;90.89;100045.16;10410660;28;20092;-78
2023/03/19 03:28:07;;;;;;;10.10;6.57;;;;;;;8.86;90.16;100045.38;10404086;28;20514;-79
2023/03/19 03:33:10;;;;;;;9.50;7.28;;;;;;;8.82;90.76;100050.16;10404338;28;20045;-78
2023/03/19 03:38:13;;;;;;;11.85;7.03;;;;;;;8.80;90.91;100057.44;10400096;28;20042;-82
2023/03/19 03:43:18;;;;;;;9.80;7.90;;;;;;;8.81;90.93;100051.13;10408543;28;20050;-77
2023/03/19 03:48:21;;;;;;;10.63;7.10;;;;;;;8.84;90.59;100049.06;10403859;28;20080;-77
2023/03/19 03:53:24;;;;;;;9.23;7.53;;;;;;;8.89;91.20;100059.41;10414393;28;20072;-78
2023/03/19 03:58:29;;;;;;;9.75;7.25;;;;;;;8.89;90.97;100051.38;10380776;28;20405;-78
2023/03/19 04:03:31;;;;;;;12.88;6.90;;;;;;;8.97;91.31;100053.44;10398164;28;20069;-78
2023/03/19 04:08:34;;;;;;;12.65;7.47;;;;;;;8.89;89.67;100042.50;10390486;28;20045;-78
2023/03/19 04:13:39;;;;;;;11.98;7.55;;;;;;;8.83;90.09;100042.00;10386989;28;20431;-78
2023/03/19 04:18:42;;;;;;;8.63;7.07;;;;;;;8.80;89.32;100044.06;10492685;23;20048;-77
2023/03/19 04:23:45;;;;;;;9.35;7.32;;;;;;;8.72;89.43;100039.31;10465218;28;20057;-77
2023/03/19 04:28:50;;;;;;;8.35;6.63;;;;;;;8.74;89.97;100052.56;10468647;28;20037;-76
2023/03/19 04:33:53;;;;;;;10.27;6.90;;;;;;;8.60;89.37;100062.53;10450016;28;20052;-77
2023/03/19 04:38:56;;;;;;;13.60;8.25;;;;;;;8.52;89.99;100059.59;10449393;28;20144;-76
2023/03/19 04:44:01;;;;;;;11.50;8.75;;;;;;;8.50;90.21;100052.66;10460994;28;20049;-76
2023/03/19 04:49:04;;;;;;;11.70;8.90;;;;;;;8.45;90.26;100055.69;10462849;28;20041;-77
2023/03/19 04:54:08;;;;;;;11.43;9.18;;;;;;;8.40;90.32;100050.69;10469309;28;20056;-77
2023/03/19 04:59:13;;;;;;;12.25;9.27;;;;;;;8.40;90.33;100058.72;10464990;28;20064;-78
2023/03/19 05:04:17;;;;;;;9.10;8.13;;;;;;;8.43;90.61;100062.97;10470769;28;20123;-75
2023/03/19 05:09:21;;;;;;;12.48;9.02;;;;;;;8.45;90.60;100063.72;10473891;28;20109;-75
2023/03/19 05:14:26;;;;;;;12.50;8.10;;;;;;;8.42;90.39;100058.59;10463134;28;20227;-77
2023/03/19 05:19:51;;;;;;;12.65;8.00;;;;;;;8.36;90.36;100067.09;10463697;28;20043;-77
2023/03/19 05:24:55;;;;;;;13.27;7.82;;;;;;;8.33;90.28;100057.47;10460247;28;20043;-77
2023/03/19 05:30:00;;;;;;;11.73;9.00;;;;;;;8.28;89.64;100067.69;10451623;28;20075;-77
2023/03/19 05:35:21;;;;;;;15.02;9.55;;;;;;;8.26;89.43;100080.31;10468602;28;20049;-76
2023/03/19 05:40:25;;;;;;;13.85;9.13;;;;;;;8.33;89.41;100072.66;10456096;28;20041;-76
2023/03/19 05:45:30;;;;;;;11.52;9.02;;;;;;;8.38;88.80;100075.84;10461733;28;20458;-76
2023/03/19 05:50:41;;;;;;;13.67;9.77;;;;;;;8.32;88.46;100087.03;10462958;28;20064;-75
2023/03/19 05:55:52;;;;;;;14.32;9.13;;;;;;;8.41;88.21;100086.31;10459224;28;20045;-77
2023/03/19 06:00:56;;;;;;;11.82;9.00;;;;;;;8.42;89.02;100092.53;10449302;28;20041;-76
2023/03/19 06:06:00;;;;;;;10.85;7.63;;;;;;;8.44;88.10;100099.47;10455992;28;20126;-76
2023/03/19 06:11:17;;;;;;;12.02;8.52;;;;;;;8.45;88.73;100098.50;10459630;28;20045;-76
2023/03/19 06:16:27;;;;;;;12.95;9.68;;;;;;;8.58;89.07;100103.78;10457516;28;20656;-77
2023/03/19 06:21:32;;;;;;;14.13;9.82;;;;;;;8.57;87.54;100099.41;10460156;28;20037;-76
2023/03/19 06:26:38;;;;;;;16.80;10.05;;;;;;;8.66;88.99;100104.06;10442721;28;20129;-76
2023/03/19 06:31:50;;;;;;;12.77;8.57;;;;;;;8.85;88.57;100116.88;10459134;28;20055;-77
2023/03/19 06:36:57;;;;;;;12.48;8.73;;;;;;;8.99;87.71;100111.28;10454927;28;20132;-77
2023/03/19 06:42:00;;;;;;;13.98;9.23;;;;;;;9.15;87.52;100110.06;10458391;28;20084;-76
2023/03/19 06:47:05;;;;;;;13.18;8.38;;;;;;;9.29;88.70;100118.69;10456249;28;20521;-76
2023/03/19 06:52:10;;;;;;;9.40;7.18;;;;;;;9.72;88.00;100122.44;10452665;28;20083;-77
2023/03/19 06:57:12;;;;;;;9.77;7.22;;;;;;;10.20;88.67;100127.44;10470350;28;20128;-78
2023/03/19 07:02:17;;;;;;;7.65;6.57;;;;;;;10.81;90.53;100129.47;10474459;28;20040;-77
2023/03/19 07:07:20;;;;;;;8.55;6.30;;;;;;;10.97;90.24;100131.66;10474692;28;20041;-77
2023/03/19 07:12:22;;;;;;;9.85;6.35;;;;;;;10.97;89.63;100134.34;10466734;28;20091;-75
2023/03/19 07:17:26;;;;;;;9.07;6.40;;;;;;;10.94;89.08;100148.03;10483027;28;20138;-75
2023/03/19 07:22:29;;;;;;;11.57;6.63;;;;;;;11.24;89.98;100147.25;10480698;28;20063;-75
2023/03/19 07:27:32;;;;;;;8.20;7.20;;;;;;;11.40;89.11;100154.81;10480613;28;20101;-75
2023/03/19 07:32:37;;;;;;;10.35;6.20;;;;;;;11.27;89.02;100149.66;10487585;28;20121;-75
2023/03/19 07:37:40;;;;;;;7.65;6.47;;;;;;;11.37;88.66;100157.78;10472244;28;20093;-76
2023/03/19 07:42:43;;;;;;;13.65;6.43;;;;;;;11.57;88.48;100156.84;10485355;28;20043;-74
2023/03/19 07:47:50;;;;;;;3.60;3.00;;;;;;;11.88;89.73;100163.06;10462997;28;20148;-75
2023/03/19 07:52:53;;;;;;;9.57;4.30;;;;;;;12.21;89.25;100160.97;10482318;28;20070;-75
2023/03/19 07:57:55;;;;;;;5.95;4.68;;;;;;;12.45;88.69;100168.69;10490518;28;20128;-75
2023/03/19 08:03:00;;;;;;;6.30;4.68;;;;;;;12.83;87.91;100162.41;10483255;28;20116;-75
2023/03/19 08:08:03;;;;;;;5.35;4.78;;;;;;;13.24;88.24;100167.53;10483298;28;20069;-75
2023/03/19 08:13:05;;;;;;;5.25;4.00;;;;;;;13.71;89.72;100171.09;10492363;28;20048;-76
2023/03/19 08:18:10;;;;;;;4.28;3.65;;;;;;;14.29;87.57;100183.38;10489094;28;20763;-76
2023/03/19 08:23:13;;;;;;;5.97;3.75;;;;;;;14.39;81.36;100172.50;10490606;28;20521;-75
2023/03/19 08:28:15;;;;;;;6.65;3.42;;;;;;;14.16;72.62;100183.75;10492533;28;20123;-76
2023/03/19 08:33:20;;;;;;;5.25;3.88;;;;;;;14.41;70.49;100191.28;10488530;28;20124;-76
2023/03/19 08:38:22;;;;;;;7.95;3.45;;;;;;;13.87;66.13;100191.16;10494566;28;20060;-78
2023/03/19 08:43:25;;;;;;;6.60;3.05;;;;;;;14.23;64.54;100188.53;10495162;28;20499;-76
2023/03/19 08:48:29;;;;;;;4.40;2.90;;;;;;;14.74;61.04;100190.56;10488057;28;20123;-77
2023/03/19 08:53:33;;;;;;;4.78;2.78;;;;;;;15.41;60.28;100196.34;10498788;28;20040;-77
2023/03/19 08:58:36;;;;;;;3.78;2.55;;;;;;;15.16;57.49;100191.72;10492941;28;20055;-77
2023/03/19 09:03:41;;;;;;;4.95;2.65;;;;;;;14.66;57.90;100193.22;10489917;28;20068;-76
2023/03/19 09:08:45;;;;;;;5.32;2.78;;;;;;;15.39;55.56;100195.63;10494287;28;20554;-76
2023/03/19 09:13:47;;;;;;;5.65;3.10;;;;;;;14.52;55.77;100199.16;10485781;28;20553;-76
2023/03/19 09:18:51;;;;;;;4.50;3.33;;;;;;;14.85;56.02;100203.00;10477553;28;20036;-76
2023/03/19 09:23:54;;;;;;;7.30;3.67;;;;;;;14.61;57.21;100198.22;10483432;28;20128;-76
2023/03/19 09:28:58;;;;;;;8.98;3.20;;;;;;;15.26;55.84;100195.19;10468981;28;20119;-76
2023/03/19 09:34:02;;;;;;;4.18;2.83;;;;;;;14.61;54.94;100217.16;10447817;28;20444;-76
2023/03/19 09:39:06;;;;;;;5.60;3.40;;;;;;;14.28;56.86;100205.97;10451594;28;20049;-76
2023/03/19 09:44:15;;;;;;;7.78;4.57;;;;;;;14.63;55.62;100217.84;10444236;28;20074;-77
2023/03/19 09:49:25;;;;;;;7.07;5.03;;;;;;;15.25;54.08;100216.00;10452635;28;20170;-75
2023/03/19 09:54:33;;;;;;;6.82;4.82;;;;;;;14.94;55.26;100217.44;10417295;28;20515;-76
2023/03/19 09:59:37;;;;;;;9.55;5.00;;;;;;;14.51;56.46;100228.06;10427490;28;20507;-76
2023/03/19 10:04:46;;;;;;;7.68;5.05;;;;;;;14.35;58.20;100222.44;10442711;28;20083;-76
2023/03/19 10:10:00;;;;;;;7.10;4.13;;;;;;;13.79;56.89;100221.59;10437913;28;20045;-76
2023/03/19 10:15:15;;;;;;;4.47;3.88;;;;;;;13.70;58.11;100231.47;10444647;28;20511;-75
2023/03/19 10:20:26;;;;;;;8.73;4.13;;;;;;;14.43;57.91;100227.97;10431570;28;20072;-76
2023/03/19 10:25:32;;;;;;;5.90;4.55;;;;;;;14.86;56.96;100234.44;10440613;28;20079;-76
2023/03/19 10:30:36;;;;;;;6.32;5.68;;;;;;;15.14;55.00;100231.59;10438590;28;20045;-76
2023/03/19 10:35:44;;;;;;;5.72;4.85;;;;;;;15.33;56.07;100228.72;10444692;28;20049;-76
2023/03/19 10:40:59;;;;;;;7.07;5.22;;;;;;;16.24;54.55;100230.88;10440078;28;20443;-76
2023/03/19 10:46:02;;;;;;;7.03;5.15;;;;;;;17.25;52.18;100230.69;10440173;28;20060;-76
2023/03/19 10:51:07;;;;;;;6.10;5.50;;;;;;;17.03;51.31;100244.88;10417404;28;20400;-76
2023/03/19 10:56:19;;;;;;;5.43;4.90;;;;;;;15.94;52.35;100245.84;10449655;28;20063;-75
2023/03/19 11:01:26;;;;;;;6.63;5.35;;;;;;;14.34;57.14;100254.03;10445053;28;20052;-75
2023/03/19 11:06:34;;;;;;;7.22;5.47;;;;;;;14.75;57.29;100253.59;10434971;28;20040;-75
2023/03/19 11:11:43;;;;;;;6.20;5.38;;;;;;;14.97;55.85;100258.53;10437245;28;20411;-75
2023/03/19 11:16:48;;;;;;;7.57;5.60;;;;;;;15.66;55.92;100256.00;10430773;28;20036;-75
2023/03/19 11:22:09;;;;;;;7.72;5.53;;;;;;;15.18;54.83;100262.78;10445745;28;20045;-76
2023/03/19 11:27:12;;;;;;;5.15;4.60;;;;;;;14.36;58.24;100268.22;10437614;28;20072;-75
2023/03/19 11:32:28;;;;;;;4.40;4.00;;;;;;;14.21;57.98;100266.19;10431889;28;20053;-74
2023/03/19 11:37:48;;;;;;;8.15;5.15;;;;;;;14.63;57.28;100258.41;10438402;28;20131;-75
2023/03/19 11:43:04;;;;;;;4.68;3.80;;;;;;;14.91;55.60;100261.03;10442740;28;20051;-75
2023/03/19 11:48:26;;;;;;;5.13;3.78;;;;;;;14.37;57.07;100260.94;10434845;28;20463;-75
2023/03/19 11:53:36;;;;;;;6.22;4.85;;;;;;;14.50;57.78;100263.31;10436792;28;20044;-75
2023/03/19 11:58:58;;;;;;;6.20;5.65;;;;;;;13.71;60.06;100251.19;10438828;28;21538;-75
2023/03/19 12:04:20;;;;;;;9.33;6.03;;;;;;;14.20;59.65;100267.19;10439177;28;20053;-76
2023/03/19 12:09:33;;;;;;;8.48;6.60;;;;;;;14.05;59.57;100266.84;10445222;28;20048;-75
2023/03/19 12:14:50;;;;;;;9.27;7.20;;;;;;;15.28;57.90;100271.66;10429507;28;20040;-76
2023/03/19 12:20:14;;;;;;;6.88;6.22;;;;;;;16.66;52.12;100259.78;10440305;28;20052;-76
2023/03/19 12:25:28;;;;;;;7.32;5.97;;;;;;;15.55;53.81;100261.69;10437162;28;20608;-75
2023/03/19 12:30:37;;;;;;;6.78;5.95;;;;;;;14.78;55.26;100250.59;10435046;28;20051;-76
2023/03/19 12:35:42;;;;;;;6.15;5.60;;;;;;;14.35;56.85;100258.41;10422580;28;20049;-76
2023/03/19 12:40:51;;;;;;;5.82;5.32;;;;;;;14.47;57.54;100247.41;10451250;28;20519;-76
2023/03/19 12:45:59;;;;;;;6.70;6.10;;;;;;;14.21;58.56;100247.28;10435873;28;20045;-76
2023/03/19 12:51:09;;;;;;;6.63;6.03;;;;;;;14.62;58.52;100253.13;10449125;28;20063;-76
2023/03/19 12:56:21;;;;;;;6.80;5.47;;;;;;;14.48;58.08;100258.09;10437112;28;20620;-76
2023/03/19 13:01:27;;;;;;;5.57;5.03;;;;;;;14.85;59.00;100250.84;10452728;28;20044;-75
2023/03/19 13:06:35;;;;;;;7.65;5.22;;;;;;;14.71;59.17;100257.63;10451155;28;20052;-76
2023/03/19 13:11:48;;;;;;;6.47;5.82;;;;;;;15.03;61.99;100255.22;10440961;28;20201;-76
2023/03/19 13:16:57;;;;;;;5.22;4.70;;;;;;;14.58;59.69;100255.31;10452002;28;20112;-76
2023/03/19 13:22:06;;;;;;;5.45;4.95;;;;;;;14.99;62.42;100251.13;10476672;28;20056;-74
2023/03/19 13:27:16;;;;;;;8.32;5.72;;;;;;;15.88;59.01;100251.91;10467766;28;20048;-76
2023/03/19 13:32:25;;;;;;;7.05;5.72;;;;;;;19.07;51.56;100237.81;10451033;28;20458;-75
2023/03/19 13:37:28;;;;;;;4.97;4.57;;;;;;;23.50;41.08;100217.19;10448193;28;20707;-77
2023/03/19 13:42:42;;;;;;;6.18;5.13;;;;;;;25.11;36.93;100206.09;10452567;28;20109;-76
2023/03/19 13:47:48;;;;;;;5.13;4.30;;;;;;;23.28;39.26;100213.84;10445613;28;20048;-76
2023/03/19 13:52:55;;;;;;;5.18;4.70;;;;;;;18.32;46.58;100231.19;10426124;28;20403;-75
2023/03/19 13:58:16;;;;;;;5.70;5.20;;;;;;;17.75;50.24;100217.00;10441924;28;20052;-75
2023/03/19 14:03:21;;;;;;;7.60;6.22;;;;;;;17.70;49.60;100206.63;10437265;28;20052;-75
2023/03/19 14:08:27;;;;;;;6.40;5.80;;;;;;;17.27;51.12;100221.50;10453971;28;20048;-76
2023/03/19 14:13:35;;;;;;;6.90;6.30;;;;;;;17.02;51.46;100219.63;10464200;28;20052;-75
2023/03/19 14:18:42;;;;;;;6.72;6.03;;;;;;;16.76;51.86;100222.53;10452575;28;20052;-75
2023/03/19 14:23:54;;;;;;;6.75;6.03;;;;;;;16.31;53.30;100218.38;10457878;28;20452;-76
2023/03/19 14:29:02;;;;;;;6.95;6.25;;;;;;;15.86;55.27;100216.00;10437986;28;20517;-76
2023/03/19 14:34:18;;;;;;;7.53;6.40;;;;;;;15.63;56.39;100213.00;10451331;28;20053;-76
2023/03/19 14:39:23;;;;;;;7.15;6.35;;;;;;;15.70;56.14;100216.78;10427197;28;20060;-77
2023/03/19 14:44:56;;;;;;;7.82;7.00;;;;;;;15.46;56.23;100221.03;10438982;28;20045;-76
2023/03/19 14:50:25;;;;;;;9.68;7.95;;;;;;;15.30;57.03;100218.19;10445417;28;20161;-77
2023/03/19 14:55:38;;;;;;;8.43;7.35;;;;;;;15.46;57.09;100220.19;10440567;28;20055;-77
2023/03/19 15:00:46;;;;;;;8.30;7.18;;;;;;;15.51;56.65;100209.75;10446787;28;20692;-76
2023/03/19 15:05:51;;;;;;;8.13;6.63;;;;;;;15.18;55.52;100220.31;10446812;28;20053;-76
2023/03/19 15:11:06;;;;;;;9.60;7.10;;;;;;;14.71;55.49;100223.34;10449873;28;20044;-74
2023/03/19 15:16:22;;;;;;;10.02;7.82;;;;;;;14.72;55.75;100235.84;10448944;28;20091;-73
2023/03/19 15:21:25;;;;;;;8.68;7.78;;;;;;;15.11;57.78;100234.63;10452853;28;20052;-76
2023/03/19 15:26:30;;;;;;;9.60;7.50;;;;;;;15.11;58.64;100243.63;10448512;28;20044;-77
2023/03/19 15:31:46;;;;;;;9.80;7.90;;;;;;;15.13;59.12;100248.84;10446937;28;20049;-76
2023/03/19 15:37:10;;;;;;;9.30;8.07;;;;;;;14.48;61.04;100246.41;10447122;28;20044;-76
2023/03/19 15:42:15;;;;;;;5.57;5.03;;;;;;;13.62;63.31;100249.41;10438824;28;20051;-76
2023/03/19 15:47:24;;;;;;;9.00;6.70;;;;;;;13.45;64.70;100259.94;10437658;28;20056;-75
2023/03/19 15:52:31;;;;;;;8.23;5.75;;;;;;;13.55;63.72;100262.63;10452457;28;20093;-76
2023/03/19 15:57:36;;;;;;;6.80;6.05;;;;;;;13.60;63.98;100272.97;10455197;28;20044;-76
2023/03/19 16:02:42;;;;;;;4.50;4.10;;;;;;;12.67;65.42;100274.47;10452391;28;20044;-75
2023/03/19 16:07:45;;;;;;;4.43;3.88;;;;;;;12.96;64.66;100269.09;10450253;28;20048;-76
2023/03/19 16:18:30;;;;;;;4.55;3.47;;;;;;;12.97;64.73;100278.88;10968160;23;20052;-79
2023/03/19 16:23:35;;;;;;;2.60;2.30;;;;;;;12.92;64.11;100290.09;10107754;29;20105;-79
2023/03/19 16:28:42;;;;;;;2.25;2.05;;;;;;;12.83;63.93;100293.63;10113855;29;20497;-78
2023/03/19 16:33:50;;;;;;;2.30;2.10;;;;;;;12.80;64.33;100297.44;10132433;29;20049;-76
2023/03/19 16:38:56;;;;;;;3.13;1.95;;;;;;;12.65;64.64;100300.72;10125458;29;20523;-78
2023/03/19 16:44:12;;;;;;;2.25;2.05;;;;;;;12.59;65.47;100310.22;10141981;29;20453;-79
2023/03/19 16:49:18;;;;;;;2.85;2.65;;;;;;;12.56;66.17;100313.16;10131150;29;20048;-79
2023/03/19 16:54:22;;;;;;;3.88;3.50;;;;;;;12.76;66.06;100319.44;10122045;29;20048;-76
2023/03/19 16:59:28;;;;;;;4.50;4.05;;;;;;;12.76;65.87;100314.91;10121105;29;20116;-80
2023/03/19 17:04:32;;;;;;;3.95;3.58;;;;;;;12.77;66.33;100322.00;10101741;29;20104;-80
2023/03/19 17:09:36;;;;;;;6.28;3.60;;;;;;;12.74;66.62;100321.44;10125416;29;20051;-77
2023/03/19 17:14:39;;;;;;;5.40;4.80;;;;;;;12.69;67.22;100323.69;10126662;29;20107;-81
2023/03/19 17:19:45;;;;;;;9.10;4.75;;;;;;;12.64;67.21;100323.25;10097980;29;20060;-79
2023/03/19 17:24:48;;;;;;;5.25;4.75;;;;;;;12.67;67.28;100331.06;10114580;29;20044;-80
2023/03/19 17:29:50;;;;;;;6.20;4.13;;;;;;;12.65;67.34;100333.91;10124218;29;20071;-77
2023/03/19 17:34:55;;;;;;;4.47;4.07;;;;;;;12.52;67.46;100339.53;10111879;29;20044;-81
2023/03/19 17:39:58;;;;;;;4.70;4.22;;;;;;;12.45;68.12;100341.09;10120760;29;20043;-78
2023/03/19 17:45:00;;;;;;;8.00;5.38;;;;;;;12.32;69.52;100346.72;10108746;29;20068;-79
2023/03/19 17:50:07;;;;;;;7.70;6.00;;;;;;;12.12;70.56;100353.84;10113828;29;20048;-81
2023/03/19 17:55:15;;;;;;;8.95;6.22;;;;;;;12.07;70.87;100350.72;10119907;29;20313;-77
2023/03/19 18:00:20;;;;;;;8.15;6.82;;;;;;;12.02;71.15;100352.09;10075993;29;20134;-79
2023/03/19 18:05:26;;;;;;;8.30;6.55;;;;;;;11.87;71.19;100367.72;10089421;29;20180;-80
2023/03/19 18:10:31;;;;;;;8.75;7.25;;;;;;;11.77;71.77;100365.00;10073747;29;20135;-77
2023/03/19 18:15:36;;;;;;;10.15;8.43;;;;;;;11.80;72.07;100364.72;10087114;29;20108;-78
2023/03/19 18:20:40;;;;;;;11.20;8.68;;;;;;;11.77;72.01;100378.44;10100164;29;20056;-79
2023/03/19 18:25:44;;;;;;;10.60;8.30;;;;;;;11.67;72.24;100389.13;10090821;29;20048;-81
2023/03/19 18:30:47;;;;;;;9.77;8.10;;;;;;;11.68;72.51;100388.16;10092619;29;20061;-77
2023/03/19 18:35:52;;;;;;;12.05;8.63;;;;;;;11.66;72.41;100397.34;10094316;29;20060;-79
2023/03/19 18:40:55;;;;;;;14.23;8.70;;;;;;;11.56;72.70;100408.03;10087188;29;20060;-79
2023/03/19 18:45:58;;;;;;;12.43;8.75;;;;;;;11.48;73.11;100402.44;10088895;29;20056;-79
2023/03/19 18:51:02;;;;;;;12.18;9.63;;;;;;;11.53;73.45;100402.06;10093781;29;20072;-80
2023/03/19 18:56:18;;;;;;;13.57;8.90;;;;;;;11.52;73.71;100419.19;10087344;29;20061;-79
2023/03/19 19:01:21;;;;;;;14.13;9.95;;;;;;;11.38;73.99;100431.09;10076997;29;20280;-79
2023/03/19 19:06:29;;;;;;;15.77;10.73;;;;;;;11.39;74.19;100433.69;10084293;29;20123;-77
2023/03/19 19:11:49;;;;;;;14.73;10.73;;;;;;;11.42;73.96;100433.41;10055805;29;20105;-80
2023/03/19 19:16:53;;;;;;;15.05;10.75;;;;;;;11.47;73.91;100435.72;10088510;29;20469;-78
2023/03/19 19:21:57;;;;;;;14.93;11.40;;;;;;;11.58;73.75;100435.66;10090296;29;20760;-79
2023/03/19 19:27:00;;;;;;;15.88;11.57;;;;;;;11.69;73.46;100445.53;10102319;29;20080;-78
2023/03/19 19:32:04;;;;;;;18.33;11.63;;;;;;;11.59;73.96;100456.19;10126871;29;20613;-79
2023/03/19 19:37:15;;;;;;;15.20;11.25;;;;;;;11.56;74.53;100467.22;10112551;29;20049;-79
2023/03/19 19:42:20;;;;;;;13.52;10.90;;;;;;;11.43;75.48;100474.59;10115764;29;20052;-80
2023/03/19 19:47:23;;;;;;;19.15;13.73;;;;;;;11.36;76.05;100471.59;10117884;29;20112;-78
2023/03/19 19:52:28;;;;;;;15.55;12.02;;;;;;;11.47;76.11;100474.22;10111578;29;20523;-78
2023/03/19 19:57:33;;;;;;;16.90;12.15;;;;;;;11.41;76.32;100482.81;10122500;29;20056;-80
2023/03/19 20:02:36;;;;;;;16.08;12.23;;;;;;;11.36;76.85;100485.03;10111310;29;20110;-80
2023/03/19 20:07:40;;;;;;;17.30;12.90;;;;;;;11.34;77.24;100487.00;10095434;29;20120;-79
2023/03/19 20:12:46;;;;;;;22.65;14.02;;;;;;;11.33;77.15;100489.81;10125156;29;20128;-79
2023/03/19 20:17:50;;;;;;;17.45;13.32;;;;;;;11.41;76.77;100498.06;10112084;29;20108;-79
2023/03/19 20:22:56;;;;;;;16.25;12.88;;;;;;;11.41;76.41;100490.88;10112035;29;20052;-77
2023/03/19 20:28:01;;;;;;;20.10;13.07;;;;;;;11.39;76.08;100502.75;10118063;29;20083;-79
2023/03/19 20:33:04;;;;;;;19.40;11.45;;;;;;;11.48;75.15;100500.13;10120985;29;20056;-80
2023/03/19 20:38:11;;;;;;;19.05;12.75;;;;;;;11.50;74.56;100506.25;10123260;29;20104;-78
2023/03/19 20:43:24;;;;;;;19.23;12.20;;;;;;;11.47;74.31;100509.19;10108778;29;20180;-81
2023/03/19 20:48:30;;;;;;;19.63;14.02;;;;;;;11.52;74.13;100508.84;10117237;29;20176;-79
2023/03/19 20:53:35;;;;;;;17.70;13.55;;;;;;;11.49;74.05;100515.31;10117503;29;20060;-78
2023/03/19 20:58:38;;;;;;;19.70;14.55;;;;;;;11.59;73.89;100517.22;10111354;29;20136;-79
2023/03/19 21:03:41;;;;;;;19.15;13.63;;;;;;;11.15;73.94;100519.91;10125832;29;20040;-79
2023/03/19 21:08:47;;;;;;;27.58;16.05;;;;;;;11.26;74.25;100533.31;10132379;29;20048;-78
2023/03/19 21:13:52;;;;;;;27.13;17.55;;;;;;;11.15;75.02;100532.50;10122482;29;20516;-79
2023/03/19 21:18:55;;;;;;;29.63;18.02;;;;;;;11.25;73.85;100536.16;10128114;29;20050;-78
2023/03/19 21:24:03;;;;;;;31.70;18.65;;;;;;;11.22;73.46;100534.56;10169347;29;20104;-79
2023/03/19 21:29:12;;;;;;;37.35;20.55;;;;;;;11.26;73.07;100554.00;10155817;29;20056;-80
2023/03/19 21:34:15;;;;;;;35.63;20.30;;;;;;;11.25;72.66;100565.75;10169991;29;20055;-78
2023/03/19 21:39:19;;;;;;;38.45;20.42;;;;;;;11.17;72.96;100560.97;10161867;29;20074;-82
2023/03/19 21:44:23;;;;;;;40.95;20.92;;;;;;;10.99;73.56;100567.78;10203948;29;20035;-79
2023/03/19 21:49:26;;;;;;;49.78;26.42;;;;;;;10.42;74.71;100566.88;10214918;29;20478;-79
2023/03/19 21:54:30;;;;;;;59.75;29.20;;;;;;;10.16;76.03;100571.59;10205558;29;20040;-78
2023/03/19 21:59:33;;;;;;;58.80;29.95;;;;;;;10.30;75.60;100579.44;10212880;29;20036;-79
2023/03/19 22:04:36;;;;;;;57.70;30.67;;;;;;;10.11;75.77;100579.97;10217729;29;20670;-80
2023/03/19 22:09:40;;;;;;;59.55;28.95;;;;;;;10.20;75.34;100585.63;10213770;29;20044;-77
2023/03/19 22:14:44;;;;;;;63.35;30.42;;;;;;;9.58;77.86;100586.66;10205367;29;20043;-78
2023/03/19 22:19:46;;;;;;;62.97;30.80;;;;;;;9.97;76.36;100590.06;10199687;29;20062;-81
2023/03/19 22:24:53;;;;;;;63.22;30.27;;;;;;;9.83;76.34;100588.38;10198420;29;20040;-79
2023/03/19 22:29:57;;;;;;;59.47;29.17;;;;;;;9.25;78.98;100591.69;10204439;29;20051;-79
2023/03/19 22:35:00;;;;;;;60.08;29.83;;;;;;;9.41;77.80;100580.72;10194822;29;20058;-79
2023/03/19 22:40:11;;;;;;;56.20;28.70;;;;;;;9.56;76.47;100581.41;10198666;29;20052;-79
2023/03/19 22:45:26;;;;;;;55.40;27.42;;;;;;;9.53;76.14;100581.63;10192904;29;20052;-80
2023/03/19 22:50:31;;;;;;;52.55;24.73;;;;;;;9.12;76.97;100585.50;10202758;29;20131;-80
2023/03/19 22:55:35;;;;;;;55.00;28.58;;;;;;;9.32;76.46;100585.88;10203660;29;20036;-80
2023/03/19 23:00:39;;;;;;;53.80;26.95;;;;;;;9.25;76.50;100582.78;10200924;29;20488;-80
2023/03/19 23:05:45;;;;;;;54.22;25.85;;;;;;;9.15;76.58;100589.78;10194700;29;20046;-80
2023/03/19 23:10:52;;;;;;;54.33;27.70;;;;;;;9.00;76.93;100600.63;10203243;29;20052;-79
2023/03/19 23:15:57;;;;;;;53.75;27.63;;;;;;;8.92;76.98;100610.19;10195078;29;20127;-78
2023/03/19 23:21:00;;;;;;;59.60;28.02;;;;;;;8.96;77.58;100607.16;10177284;29;20048;-79
2023/03/19 23:26:05;;;;;;;62.35;29.25;;;;;;;9.06;77.19;100613.59;10198892;29;20103;-80
2023/03/19 23:31:09;;;;;;;53.03;26.17;;;;;;;9.08;77.12;100624.22;10187103;29;20255;-80